Happy Valley, Tennessee
Current Conditions -  °F | °C
As of 4:53 PM on Tuesday 25 Nov 2014 (Local Time) from KTYS Reporting Station
Broken Clouds Broken Clouds  
Wind Chill: 13°   Ceiling: 25000
Heat Index: 13°   Visibility: 10mi
Dew Point: -3°   Wind: 0mph
Humidity: 34%   Direction: NA
Pressure: 30.04"   Gusts: NA
Location:  35.5537°N, 83.9603°W
Report Text: KTYS 252153Z 00000KT 10SM SCT150 BKN250 13/M03 A3004 RMK AO2 SLP173 T01281028
Loading
Personal Weather Stations






























Interactive Weather Map New forecast layout! Learn more

10-Day Weather Forecast

Advertisements
Track Severe Weather on mobile